sensor_id;sensor_type;location;lat;lon;timestamp;pressure;altitude;pressure_sealevel;temperature;humidity
80137;BME280;69466;55.948;37.484;2023-09-30T00:01:10;99920.28;;;14.33;71.49
80137;BME280;69466;55.948;37.484;2023-09-30T00:03:37;99926.19;;;14.30;71.71
80137;BME280;69466;55.948;37.484;2023-09-30T00:06:03;99931.78;;;14.35;71.51
80137;BME280;69466;55.948;37.484;2023-09-30T00:08:30;99929.91;;;14.36;71.29
80137;BME280;69466;55.948;37.484;2023-09-30T00:10:56;99935.38;;;14.36;71.53
80137;BME280;69466;55.948;37.484;2023-09-30T00:13:22;99921.00;;;14.29;71.43
80137;BME280;69466;55.948;37.484;2023-09-30T00:15:50;99934.38;;;14.30;71.45
80137;BME280;69466;55.948;37.484;2023-09-30T00:18:16;99932.28;;;14.32;71.35
80137;BME280;69466;55.948;37.484;2023-09-30T00:20:42;99926.47;;;14.29;71.30
80137;BME280;69466;55.948;37.484;2023-09-30T00:23:08;99908.28;;;14.23;71.25
80137;BME280;69466;55.948;37.484;2023-09-30T00:25:34;99929.53;;;14.32;71.43
80137;BME280;69466;55.948;37.484;2023-09-30T00:28:00;99939.84;;;14.30;71.37
80137;BME280;69466;55.948;37.484;2023-09-30T00:30:26;99928.56;;;14.27;71.42
80137;BME280;69466;55.948;37.484;2023-09-30T00:32:52;99935.00;;;14.32;71.24
80137;BME280;69466;55.948;37.484;2023-09-30T00:35:18;99920.75;;;14.18;71.49
80137;BME280;69466;55.948;37.484;2023-09-30T00:37:44;99931.19;;;14.21;71.80
80137;BME280;69466;55.948;37.484;2023-09-30T00:40:10;99933.56;;;14.18;71.57
80137;BME280;69466;55.948;37.484;2023-09-30T00:42:38;99931.19;;;14.10;72.02
80137;BME280;69466;55.948;37.484;2023-09-30T00:45:05;99935.31;;;14.01;72.25
80137;BME280;69466;55.948;37.484;2023-09-30T00:47:33;99918.53;;;13.86;72.49
80137;BME280;69466;55.948;37.484;2023-09-30T00:50:00;99935.13;;;13.84;72.89
80137;BME280;69466;55.948;37.484;2023-09-30T00:52:27;99931.47;;;13.79;73.13
80137;BME280;69466;55.948;37.484;2023-09-30T00:54:53;99926.56;;;13.69;73.52
80137;BME280;69466;55.948;37.484;2023-09-30T00:57:21;99920.50;;;13.67;73.43
80137;BME280;69466;55.948;37.484;2023-09-30T00:59:48;99922.38;;;13.66;73.52
80137;BME280;69466;55.948;37.484;2023-09-30T01:02:17;99924.53;;;13.64;73.39
80137;BME280;69466;55.948;37.484;2023-09-30T01:04:44;99917.88;;;13.60;73.58
80137;BME280;69466;55.948;37.484;2023-09-30T01:07:10;99917.88;;;13.60;73.90
80137;BME280;69466;55.948;37.484;2023-09-30T01:09:38;99913.84;;;13.63;73.69
80137;BME280;69466;55.948;37.484;2023-09-30T01:12:04;99918.25;;;13.64;73.53
80137;BME280;69466;55.948;37.484;2023-09-30T01:14:32;99913.63;;;13.64;73.71
80137;BME280;69466;55.948;37.484;2023-09-30T01:17:01;99917.19;;;13.65;73.85
80137;BME280;69466;55.948;37.484;2023-09-30T01:19:28;99906.84;;;13.67;73.88
80137;BME280;69466;55.948;37.484;2023-09-30T01:21:58;99903.28;;;13.66;73.64
80137;BME280;69466;55.948;37.484;2023-09-30T01:24:40;99906.41;;;13.70;73.46
80137;BME280;69466;55.948;37.484;2023-09-30T01:27:08;99909.22;;;13.63;73.50
80137;BME280;69466;55.948;37.484;2023-09-30T01:29:34;99907.13;;;13.65;73.19
80137;BME280;69466;55.948;37.484;2023-09-30T01:32:07;99905.81;;;13.68;73.26
80137;BME280;69466;55.948;37.484;2023-09-30T01:34:35;99902.47;;;13.66;73.53
80137;BME280;69466;55.948;37.484;2023-09-30T01:37:02;99901.66;;;13.65;73.50
80137;BME280;69466;55.948;37.484;2023-09-30T01:39:28;99896.28;;;13.59;73.27
80137;BME280;69466;55.948;37.484;2023-09-30T01:41:54;99891.16;;;13.51;73.57
80137;BME280;69466;55.948;37.484;2023-09-30T01:44:19;99901.72;;;13.47;73.87
80137;BME280;69466;55.948;37.484;2023-09-30T01:46:45;99896.97;;;13.43;73.50
80137;BME280;69466;55.948;37.484;2023-09-30T01:49:11;99897.75;;;13.43;73.72
80137;BME280;69466;55.948;37.484;2023-09-30T01:51:37;99894.09;;;13.38;73.91
80137;BME280;69466;55.948;37.484;2023-09-30T01:54:03;99886.69;;;13.26;74.18
80137;BME280;69466;55.948;37.484;2023-09-30T01:56:30;99881.84;;;13.10;74.56
80137;BME280;69466;55.948;37.484;2023-09-30T01:58:59;99892.09;;;13.15;74.37
80137;BME280;69466;55.948;37.484;2023-09-30T02:01:25;99891.91;;;13.10;74.31
80137;BME280;69466;55.948;37.484;2023-09-30T02:03:51;99894.13;;;13.01;74.38
80137;BME280;69466;55.948;37.484;2023-09-30T02:06:17;99898.78;;;12.94;74.80
80137;BME280;69466;55.948;37.484;2023-09-30T02:08:44;99899.09;;;12.86;75.00
80137;BME280;69466;55.948;37.484;2023-09-30T02:11:12;99894.81;;;12.78;75.51
80137;BME280;69466;55.948;37.484;2023-09-30T02:13:41;99892.81;;;12.67;75.61
80137;BME280;69466;55.948;37.484;2023-09-30T02:16:13;99895.38;;;12.62;76.06
80137;BME280;69466;55.948;37.484;2023-09-30T02:18:43;99886.22;;;12.57;76.45
80137;BME280;69466;55.948;37.484;2023-09-30T02:21:12;99861.66;;;12.45;76.68
80137;BME280;69466;55.948;37.484;2023-09-30T02:23:38;99883.75;;;12.55;76.63
80137;BME280;69466;55.948;37.484;2023-09-30T02:26:05;99884.50;;;12.62;76.77
80137;BME280;69466;55.948;37.484;2023-09-30T02:28:32;99890.41;;;12.59;76.66
80137;BME280;69466;55.948;37.484;2023-09-30T02:31:00;99890.00;;;12.56;76.77
80137;BME280;69466;55.948;37.484;2023-09-30T02:33:27;99880.03;;;12.50;76.81
80137;BME280;69466;55.948;37.484;2023-09-30T02:35:53;99875.25;;;12.45;76.84
80137;BME280;69466;55.948;37.484;2023-09-30T02:38:20;99877.16;;;12.44;77.00
80137;BME280;69466;55.948;37.484;2023-09-30T02:40:48;99884.53;;;12.37;76.75
80137;BME280;69466;55.948;37.484;2023-09-30T02:43:14;99888.59;;;12.28;77.24
80137;BME280;69466;55.948;37.484;2023-09-30T02:45:42;99873.19;;;12.22;77.48
80137;BME280;69466;55.948;37.484;2023-09-30T02:48:09;99881.06;;;12.30;77.26
80137;BME280;69466;55.948;37.484;2023-09-30T02:50:35;99869.47;;;12.17;77.59
80137;BME280;69466;55.948;37.484;2023-09-30T02:53:03;99876.97;;;12.21;77.88
80137;BME280;69466;55.948;37.484;2023-09-30T02:55:30;99868.81;;;12.21;77.65
80137;BME280;69466;55.948;37.484;2023-09-30T02:57:56;99871.72;;;12.20;78.06
80137;BME280;69466;55.948;37.484;2023-09-30T03:00:23;99862.34;;;12.16;77.50
80137;BME280;69466;55.948;37.484;2023-09-30T03:02:51;99869.69;;;12.15;77.64
80137;BME280;69466;55.948;37.484;2023-09-30T03:05:18;99870.47;;;12.22;77.05
80137;BME280;69466;55.948;37.484;2023-09-30T03:07:46;99873.63;;;12.19;77.13
80137;BME280;69466;55.948;37.484;2023-09-30T03:10:12;99872.41;;;12.15;76.89
80137;BME280;69466;55.948;37.484;2023-09-30T03:12:40;99869.13;;;12.07;77.08
80137;BME280;69466;55.948;37.484;2023-09-30T03:15:06;99866.25;;;12.02;76.65
80137;BME280;69466;55.948;37.484;2023-09-30T03:17:32;99853.09;;;11.98;78.07
80137;BME280;69466;55.948;37.484;2023-09-30T03:19:59;99856.84;;;12.04;78.04
80137;BME280;69466;55.948;37.484;2023-09-30T03:22:30;99869.38;;;12.05;77.39
80137;BME280;69466;55.948;37.484;2023-09-30T03:24:56;99852.47;;;11.96;77.20
80137;BME280;69466;55.948;37.484;2023-09-30T03:27:23;99863.31;;;12.03;77.36
80137;BME280;69466;55.948;37.484;2023-09-30T03:29:49;99861.47;;;11.97;77.54
80137;BME280;69466;55.948;37.484;2023-09-30T03:32:15;99864.00;;;11.98;77.66
80137;BME280;69466;55.948;37.484;2023-09-30T03:34:41;99855.88;;;11.92;78.01
80137;BME280;69466;55.948;37.484;2023-09-30T03:37:10;99845.44;;;11.89;77.70
80137;BME280;69466;55.948;37.484;2023-09-30T03:39:37;99855.63;;;12.00;77.65
80137;BME280;69466;55.948;37.484;2023-09-30T03:42:04;99852.66;;;12.02;76.85
80137;BME280;69466;55.948;37.484;2023-09-30T03:44:30;99860.59;;;12.03;77.07
80137;BME280;69466;55.948;37.484;2023-09-30T03:46:56;99857.84;;;12.10;76.98
80137;BME280;69466;55.948;37.484;2023-09-30T03:49:25;99858.22;;;12.13;76.82
80137;BME280;69466;55.948;37.484;2023-09-30T03:51:52;99865.69;;;12.18;76.44
80137;BME280;69466;55.948;37.484;2023-09-30T03:54:19;99859.59;;;12.22;76.51
80137;BME280;69466;55.948;37.484;2023-09-30T03:56:46;99863.34;;;12.21;76.18
80137;BME280;69466;55.948;37.484;2023-09-30T03:59:12;99860.97;;;12.31;76.24
80137;BME280;69466;55.948;37.484;2023-09-30T04:01:38;99863.75;;;12.43;75.98
80137;BME280;69466;55.948;37.484;2023-09-30T04:04:07;99843.19;;;12.47;75.41
80137;BME280;69466;55.948;37.484;2023-09-30T04:06:34;99859.16;;;12.62;75.62
80137;BME280;69466;55.948;37.484;2023-09-30T04:09:07;99858.41;;;12.73;75.71
80137;BME280;69466;55.948;37.484;2023-09-30T04:11:37;99848.25;;;12.80;75.34
80137;BME280;69466;55.948;37.484;2023-09-30T04:14:06;99847.34;;;12.86;74.77
80137;BME280;69466;55.948;37.484;2023-09-30T04:16:33;99852.56;;;13.06;74.72
80137;BME280;69466;55.948;37.484;2023-09-30T04:18:59;99843.41;;;13.18;73.91
80137;BME280;69466;55.948;37.484;2023-09-30T04:21:26;99849.38;;;13.68;72.33
80137;BME280;69466;55.948;37.484;2023-09-30T04:23:54;99859.03;;;14.06;70.92
80137;BME280;69466;55.948;37.484;2023-09-30T04:26:21;99853.22;;;14.49;69.34
80137;BME280;69466;55.948;37.484;2023-09-30T04:28:47;99842.38;;;14.77;67.81
80137;BME280;69466;55.948;37.484;2023-09-30T04:31:13;99851.84;;;15.26;66.89
80137;BME280;69466;55.948;37.484;2023-09-30T04:33:39;99846.53;;;15.48;65.45
80137;BME280;69466;55.948;37.484;2023-09-30T04:36:06;99839.13;;;15.77;64.27
80137;BME280;69466;55.948;37.484;2023-09-30T04:38:36;99849.72;;;16.23;63.52
80137;BME280;69466;55.948;37.484;2023-09-30T04:41:05;99854.53;;;16.50;61.94
80137;BME280;69466;55.948;37.484;2023-09-30T04:43:34;99853.91;;;16.81;61.20
80137;BME280;69466;55.948;37.484;2023-09-30T04:46:00;99852.78;;;17.25;59.80
80137;BME280;69466;55.948;37.484;2023-09-30T04:48:28;99856.72;;;17.88;58.56
80137;BME280;69466;55.948;37.484;2023-09-30T04:50:54;99847.09;;;18.17;56.98
80137;BME280;69466;55.948;37.484;2023-09-30T04:53:21;99854.63;;;18.32;56.79
80137;BME280;69466;55.948;37.484;2023-09-30T04:55:49;99855.09;;;18.56;55.89
80137;BME280;69466;55.948;37.484;2023-09-30T04:58:16;99843.06;;;18.72;55.67
80137;BME280;69466;55.948;37.484;2023-09-30T05:00:43;99845.06;;;18.82;55.39
80137;BME280;69466;55.948;37.484;2023-09-30T05:03:09;99847.41;;;19.15;55.10
80137;BME280;69466;55.948;37.484;2023-09-30T05:05:35;99840.09;;;19.51;53.71
80137;BME280;69466;55.948;37.484;2023-09-30T05:08:02;99845.59;;;19.71;53.54
80137;BME280;69466;55.948;37.484;2023-09-30T05:10:28;99840.94;;;20.27;52.07
80137;BME280;69466;55.948;37.484;2023-09-30T05:12:55;99835.34;;;20.78;50.74
80137;BME280;69466;55.948;37.484;2023-09-30T05:15:22;99839.94;;;21.08;49.67
80137;BME280;69466;55.948;37.484;2023-09-30T05:17:49;99826.03;;;21.28;48.75
80137;BME280;69466;55.948;37.484;2023-09-30T05:20:16;99842.03;;;21.75;48.43
80137;BME280;69466;55.948;37.484;2023-09-30T05:22:46;99832.63;;;22.15;47.27
80137;BME280;69466;55.948;37.484;2023-09-30T05:25:15;99838.66;;;22.46;46.04
80137;BME280;69466;55.948;37.484;2023-09-30T05:27:46;99833.88;;;22.85;45.17
80137;BME280;69466;55.948;37.484;2023-09-30T05:30:15;99835.03;;;23.03;44.59
80137;BME280;69466;55.948;37.484;2023-09-30T05:32:42;99832.91;;;23.19;44.83
80137;BME280;69466;55.948;37.484;2023-09-30T05:35:08;99825.13;;;22.97;44.58
80137;BME280;69466;55.948;37.484;2023-09-30T05:37:40;99831.47;;;23.40;43.86
80137;BME280;69466;55.948;37.484;2023-09-30T05:40:06;99824.63;;;23.56;43.15
80137;BME280;69466;55.948;37.484;2023-09-30T05:42:45;99823.72;;;23.79;42.73
80137;BME280;69466;55.948;37.484;2023-09-30T05:45:11;99808.56;;;23.91;42.53
80137;BME280;69466;55.948;37.484;2023-09-30T05:47:39;99821.22;;;23.97;42.55
80137;BME280;69466;55.948;37.484;2023-09-30T05:50:07;99829.72;;;23.87;42.91
80137;BME280;69466;55.948;37.484;2023-09-30T05:52:35;99819.69;;;24.23;42.31
80137;BME280;69466;55.948;37.484;2023-09-30T05:55:02;99814.28;;;24.45;41.50
80137;BME280;69466;55.948;37.484;2023-09-30T05:57:30;99804.59;;;24.29;41.51
80137;BME280;69466;55.948;37.484;2023-09-30T05:59:56;99801.53;;;24.44;41.27
80137;BME280;69466;55.948;37.484;2023-09-30T06:02:22;99802.03;;;24.33;41.62
80137;BME280;69466;55.948;37.484;2023-09-30T06:04:48;99809.97;;;24.66;40.80
80137;BME280;69466;55.948;37.484;2023-09-30T06:07:20;99806.59;;;24.69;41.44
80137;BME280;69466;55.948;37.484;2023-09-30T06:09:46;99802.38;;;24.86;40.35
80137;BME280;69466;55.948;37.484;2023-09-30T06:12:15;99806.72;;;25.05;40.07
80137;BME280;69466;55.948;37.484;2023-09-30T06:14:41;99811.59;;;25.36;39.98
80137;BME280;69466;55.948;37.484;2023-09-30T06:17:07;99791.34;;;25.22;39.88
80137;BME280;69466;55.948;37.484;2023-09-30T06:19:34;99795.88;;;25.67;39.38
80137;BME280;69466;55.948;37.484;2023-09-30T06:22:00;99794.06;;;25.63;39.14
80137;BME280;69466;55.948;37.484;2023-09-30T06:24:29;99806.00;;;25.85;38.56
80137;BME280;69466;55.948;37.484;2023-09-30T06:26:54;99791.19;;;25.54;38.95
80137;BME280;69466;55.948;37.484;2023-09-30T06:29:20;99795.63;;;25.55;38.30
80137;BME280;69466;55.948;37.484;2023-09-30T06:31:47;99791.09;;;25.45;38.82
80137;BME280;69466;55.948;37.484;2023-09-30T06:34:13;99790.44;;;25.12;39.55
80137;BME280;69466;55.948;37.484;2023-09-30T06:36:38;99789.53;;;24.76;40.31
80137;BME280;69466;55.948;37.484;2023-09-30T06:39:04;99791.25;;;24.45;40.96
80137;BME280;69466;55.948;37.484;2023-09-30T06:41:31;99784.41;;;24.10;41.25
80137;BME280;69466;55.948;37.484;2023-09-30T06:43:57;99786.91;;;23.93;41.83
80137;BME280;69466;55.948;37.484;2023-09-30T06:46:26;99780.19;;;24.58;40.70
80137;BME280;69466;55.948;37.484;2023-09-30T06:48:52;99778.84;;;24.56;40.35
80137;BME280;69466;55.948;37.484;2023-09-30T06:51:18;99780.59;;;25.06;39.43
80137;BME280;69466;55.948;37.484;2023-09-30T06:53:44;99773.28;;;25.46;39.15
80137;BME280;69466;55.948;37.484;2023-09-30T06:56:12;99783.63;;;25.68;38.60
80137;BME280;69466;55.948;37.484;2023-09-30T06:58:39;99786.72;;;26.11;37.60
80137;BME280;69466;55.948;37.484;2023-09-30T07:01:05;99783.06;;;26.24;36.98
80137;BME280;69466;55.948;37.484;2023-09-30T07:03:31;99779.16;;;26.25;36.94
80137;BME280;69466;55.948;37.484;2023-09-30T07:05:59;99771.00;;;26.29;36.79
80137;BME280;69466;55.948;37.484;2023-09-30T07:08:29;99778.34;;;26.64;36.54
80137;BME280;69466;55.948;37.484;2023-09-30T07:10:55;99775.59;;;26.73;36.56
80137;BME280;69466;55.948;37.484;2023-09-30T07:13:24;99769.66;;;27.14;36.18
80137;BME280;69466;55.948;37.484;2023-09-30T07:15:50;99768.59;;;27.58;35.43
80137;BME280;69466;55.948;37.484;2023-09-30T07:18:17;99763.59;;;28.06;34.54
80137;BME280;69466;55.948;37.484;2023-09-30T07:20:43;99759.78;;;28.28;34.44
80137;BME280;69466;55.948;37.484;2023-09-30T07:23:10;99753.38;;;28.36;33.99
80137;BME280;69466;55.948;37.484;2023-09-30T07:25:39;99758.84;;;28.07;34.56
80137;BME280;69466;55.948;37.484;2023-09-30T07:28:05;99746.50;;;28.25;34.32
80137;BME280;69466;55.948;37.484;2023-09-30T07:30:40;99743.78;;;27.39;36.12
80137;BME280;69466;55.948;37.484;2023-09-30T07:33:06;99750.22;;;26.83;36.59
80137;BME280;69466;55.948;37.484;2023-09-30T07:35:33;99766.06;;;26.65;37.47
80137;BME280;69466;55.948;37.484;2023-09-30T07:38:00;99754.19;;;26.42;38.34
80137;BME280;69466;55.948;37.484;2023-09-30T07:40:27;99755.41;;;25.97;38.69
80137;BME280;69466;55.948;37.484;2023-09-30T07:42:54;99750.53;;;25.44;39.89
80137;BME280;69466;55.948;37.484;2023-09-30T07:45:20;99755.69;;;25.15;40.70
80137;BME280;69466;55.948;37.484;2023-09-30T07:47:47;99754.91;;;24.87;41.28
80137;BME280;69466;55.948;37.484;2023-09-30T07:50:13;99755.31;;;24.67;41.56
80137;BME280;69466;55.948;37.484;2023-09-30T07:52:39;99751.69;;;24.66;41.63
80137;BME280;69466;55.948;37.484;2023-09-30T07:55:06;99746.69;;;24.68;41.81
80137;BME280;69466;55.948;37.484;2023-09-30T07:57:32;99754.38;;;24.58;41.91
80137;BME280;69466;55.948;37.484;2023-09-30T08:00:02;99740.41;;;24.49;42.05
80137;BME280;69466;55.948;37.484;2023-09-30T08:02:36;99739.78;;;24.66;41.99
80137;BME280;69466;55.948;37.484;2023-09-30T08:05:03;99746.06;;;24.44;42.02
80137;BME280;69466;55.948;37.484;2023-09-30T08:07:34;99734.50;;;24.10;42.93
80137;BME280;69466;55.948;37.484;2023-09-30T08:10:01;99742.78;;;23.96;43.02
80137;BME280;69466;55.948;37.484;2023-09-30T08:12:29;99740.00;;;23.96;42.95
80137;BME280;69466;55.948;37.484;2023-09-30T08:14:55;99740.06;;;23.77;43.36
80137;BME280;69466;55.948;37.484;2023-09-30T08:17:21;99739.31;;;23.72;43.50
80137;BME280;69466;55.948;37.484;2023-09-30T08:19:47;99722.94;;;23.57;43.90
80137;BME280;69466;55.948;37.484;2023-09-30T08:22:17;99731.28;;;23.70;43.93
80137;BME280;69466;55.948;37.484;2023-09-30T08:24:43;99734.91;;;23.71;43.81
80137;BME280;69466;55.948;37.484;2023-09-30T08:27:10;99726.53;;;23.57;43.55
80137;BME280;69466;55.948;37.484;2023-09-30T08:29:36;99727.16;;;23.54;44.32
80137;BME280;69466;55.948;37.484;2023-09-30T08:32:02;99715.41;;;23.76;43.88
80137;BME280;69466;55.948;37.484;2023-09-30T08:34:29;99717.53;;;23.65;43.73
80137;BME280;69466;55.948;37.484;2023-09-30T08:36:55;99716.06;;;23.54;44.01
80137;BME280;69466;55.948;37.484;2023-09-30T08:39:27;99711.69;;;23.67;43.94
80137;BME280;69466;55.948;37.484;2023-09-30T08:41:55;99715.28;;;23.67;43.60
80137;BME280;69466;55.948;37.484;2023-09-30T08:44:22;99718.75;;;23.59;43.66
80137;BME280;69466;55.948;37.484;2023-09-30T08:46:49;99711.78;;;23.62;43.72
80137;BME280;69466;55.948;37.484;2023-09-30T08:49:18;99709.38;;;23.74;43.74
80137;BME280;69466;55.948;37.484;2023-09-30T08:51:48;99711.25;;;23.92;43.33
80137;BME280;69466;55.948;37.484;2023-09-30T08:54:15;99696.78;;;23.95;43.13
80137;BME280;69466;55.948;37.484;2023-09-30T08:56:41;99697.41;;;23.92;42.34
80137;BME280;69466;55.948;37.484;2023-09-30T08:59:10;99693.03;;;23.72;42.17
80137;BME280;69466;55.948;37.484;2023-09-30T09:01:40;99693.34;;;23.71;42.34
80137;BME280;69466;55.948;37.484;2023-09-30T09:04:06;99693.75;;;23.64;42.58
80137;BME280;69466;55.948;37.484;2023-09-30T09:06:33;99692.38;;;23.62;42.61
80137;BME280;69466;55.948;37.484;2023-09-30T09:09:19;99692.13;;;23.45;42.93
80137;BME280;69466;55.948;37.484;2023-09-30T09:11:48;99681.47;;;23.33;43.40
80137;BME280;69466;55.948;37.484;2023-09-30T09:14:14;99686.09;;;23.37;43.39
80137;BME280;69466;55.948;37.484;2023-09-30T09:16:54;99682.00;;;23.35;43.09
80137;BME280;69466;55.948;37.484;2023-09-30T09:19:22;99682.16;;;23.25;43.53
80137;BME280;69466;55.948;37.484;2023-09-30T09:21:58;99677.75;;;23.24;43.21
80137;BME280;69466;55.948;37.484;2023-09-30T09:24:33;99676.69;;;23.20;43.04
80137;BME280;69466;55.948;37.484;2023-09-30T09:27:12;99667.06;;;23.17;42.20
80137;BME280;69466;55.948;37.484;2023-09-30T09:29:42;99664.00;;;23.19;42.12
80137;BME280;69466;55.948;37.484;2023-09-30T09:32:16;99672.59;;;23.17;42.29
80137;BME280;69466;55.948;37.484;2023-09-30T09:34:44;99671.47;;;23.18;42.31
80137;BME280;69466;55.948;37.484;2023-09-30T09:37:18;99676.50;;;23.16;42.48
80137;BME280;69466;55.948;37.484;2023-09-30T09:39:55;99663.94;;;23.05;41.56
80137;BME280;69466;55.948;37.484;2023-09-30T09:44:55;99665.00;;;22.90;41.73
80137;BME280;69466;55.948;37.484;2023-09-30T09:47:23;99666.78;;;22.81;41.33
80137;BME280;69466;55.948;37.484;2023-09-30T09:49:50;99657.50;;;22.72;41.83
80137;BME280;69466;55.948;37.484;2023-09-30T09:52:18;99642.16;;;22.80;41.99
80137;BME280;69466;55.948;37.484;2023-09-30T09:54:45;99640.00;;;22.77;42.07
80137;BME280;69466;55.948;37.484;2023-09-30T09:57:12;99646.66;;;22.76;41.18
80137;BME280;69466;55.948;37.484;2023-09-30T09:59:42;99642.25;;;22.75;40.98
80137;BME280;69466;55.948;37.484;2023-09-30T10:02:13;99638.34;;;22.76;41.17
80137;BME280;69466;55.948;37.484;2023-09-30T10:04:49;99629.44;;;22.79;40.88
80137;BME280;69466;55.948;37.484;2023-09-30T10:07:28;99643.75;;;22.86;41.01
80137;BME280;69466;55.948;37.484;2023-09-30T10:09:55;99643.34;;;22.92;41.23
80137;BME280;69466;55.948;37.484;2023-09-30T10:12:25;99641.63;;;22.96;41.35
80137;BME280;69466;55.948;37.484;2023-09-30T10:14:52;99637.53;;;22.94;41.32
80137;BME280;69466;55.948;37.484;2023-09-30T10:17:19;99631.53;;;22.87;41.08
80137;BME280;69466;55.948;37.484;2023-09-30T10:20:05;99624.44;;;22.81;41.47
80137;BME280;69466;55.948;37.484;2023-09-30T10:22:35;99628.69;;;22.73;40.76
80137;BME280;69466;55.948;37.484;2023-09-30T10:25:01;99614.41;;;22.66;41.11
80137;BME280;69466;55.948;37.484;2023-09-30T10:27:47;99627.97;;;22.86;40.81
80137;BME280;69466;55.948;37.484;2023-09-30T10:30:13;99631.94;;;22.80;41.49
80137;BME280;69466;55.948;37.484;2023-09-30T10:35:44;99620.78;;;22.85;40.82
80137;BME280;69466;55.948;37.484;2023-09-30T10:40:53;99626.59;;;22.84;41.51
80137;BME280;69466;55.948;37.484;2023-09-30T10:43:40;99620.72;;;22.72;41.57
80137;BME280;69466;55.948;37.484;2023-09-30T10:51:51;99624.69;;;22.61;42.20
80137;BME280;69466;55.948;37.484;2023-09-30T10:54:28;99617.22;;;22.61;42.29
80137;BME280;69466;55.948;37.484;2023-09-30T10:56:55;99603.69;;;22.60;42.19
80137;BME280;69466;55.948;37.484;2023-09-30T10:59:23;99601.25;;;22.58;42.00
80137;BME280;69466;55.948;37.484;2023-09-30T11:01:50;99595.72;;;22.58;42.15
80137;BME280;69466;55.948;37.484;2023-09-30T11:04:22;99591.00;;;22.59;41.68
80137;BME280;69466;55.948;37.484;2023-09-30T11:06:48;99594.34;;;22.55;41.80
80137;BME280;69466;55.948;37.484;2023-09-30T11:09:17;99582.44;;;22.55;41.84
80137;BME280;69466;55.948;37.484;2023-09-30T11:11:52;99589.97;;;22.54;41.42
80137;BME280;69466;55.948;37.484;2023-09-30T11:14:21;99598.25;;;22.54;41.50
80137;BME280;69466;55.948;37.484;2023-09-30T11:16:48;99590.84;;;22.50;42.12
80137;BME280;69466;55.948;37.484;2023-09-30T11:19:14;99596.69;;;22.48;41.98
80137;BME280;69466;55.948;37.484;2023-09-30T11:21:41;99581.88;;;22.39;42.50
80137;BME280;69466;55.948;37.484;2023-09-30T11:24:07;99585.75;;;22.38;42.79
80137;BME280;69466;55.948;37.484;2023-09-30T11:26:34;99582.97;;;22.38;42.33
80137;BME280;69466;55.948;37.484;2023-09-30T11:29:12;99578.88;;;22.36;42.51
80137;BME280;69466;55.948;37.484;2023-09-30T11:31:40;99560.56;;;22.21;42.33
80137;BME280;69466;55.948;37.484;2023-09-30T11:34:07;99571.78;;;22.30;42.08
80137;BME280;69466;55.948;37.484;2023-09-30T11:36:41;99576.69;;;22.33;41.84
80137;BME280;69466;55.948;37.484;2023-09-30T11:39:08;99562.38;;;22.31;41.67
80137;BME280;69466;55.948;37.484;2023-09-30T11:41:39;99572.81;;;22.34;41.73
80137;BME280;69466;55.948;37.484;2023-09-30T11:44:12;99567.56;;;22.32;42.09
80137;BME280;69466;55.948;37.484;2023-09-30T11:51:57;99564.38;;;22.25;41.45
80137;BME280;69466;55.948;37.484;2023-09-30T11:54:31;99558.56;;;22.27;40.73
80137;BME280;69466;55.948;37.484;2023-09-30T11:59:25;99550.06;;;22.18;40.78
80137;BME280;69466;55.948;37.484;2023-09-30T12:01:51;99546.81;;;22.16;40.80
80137;BME280;69466;55.948;37.484;2023-09-30T12:04:17;99548.97;;;22.19;41.02
80137;BME280;69466;55.948;37.484;2023-09-30T12:09:15;99555.59;;;22.18;41.33
80137;BME280;69466;55.948;37.484;2023-09-30T12:11:51;99540.72;;;22.14;41.44
80137;BME280;69466;55.948;37.484;2023-09-30T12:14:17;99551.78;;;22.14;41.47
80137;BME280;69466;55.948;37.484;2023-09-30T12:16:44;99547.63;;;22.17;41.84
80137;BME280;69466;55.948;37.484;2023-09-30T12:19:11;99543.50;;;22.14;42.00
80137;BME280;69466;55.948;37.484;2023-09-30T12:21:39;99534.38;;;22.14;42.19
80137;BME280;69466;55.948;37.484;2023-09-30T12:24:10;99535.22;;;22.14;42.19
80137;BME280;69466;55.948;37.484;2023-09-30T12:26:37;99542.66;;;22.14;42.41
80137;BME280;69466;55.948;37.484;2023-09-30T12:29:04;99540.28;;;22.07;42.82
80137;BME280;69466;55.948;37.484;2023-09-30T12:31:31;99518.78;;;22.04;43.13
80137;BME280;69466;55.948;37.484;2023-09-30T12:33:59;99533.34;;;22.09;43.10
80137;BME280;69466;55.948;37.484;2023-09-30T12:36:25;99510.88;;;21.92;43.31
80137;BME280;69466;55.948;37.484;2023-09-30T12:38:51;99528.94;;;22.08;43.13
80137;BME280;69466;55.948;37.484;2023-09-30T12:41:17;99519.69;;;21.99;43.11
80137;BME280;69466;55.948;37.484;2023-09-30T12:43:45;99531.94;;;22.12;43.03
80137;BME280;69466;55.948;37.484;2023-09-30T12:46:11;99531.09;;;22.12;42.92
80137;BME280;69466;55.948;37.484;2023-09-30T12:48:41;99513.53;;;22.02;42.92
80137;BME280;69466;55.948;37.484;2023-09-30T12:51:07;99523.50;;;22.03;43.14
80137;BME280;69466;55.948;37.484;2023-09-30T12:53:34;99525.09;;;22.04;43.51
80137;BME280;69466;55.948;37.484;2023-09-30T12:56:00;99529.25;;;22.07;43.67
80137;BME280;69466;55.948;37.484;2023-09-30T12:58:26;99509.50;;;21.95;44.19
80137;BME280;69466;55.948;37.484;2023-09-30T13:00:56;99529.31;;;22.02;43.56
80137;BME280;69466;55.948;37.484;2023-09-30T13:03:23;99511.47;;;21.89;43.98
80137;BME280;69466;55.948;37.484;2023-09-30T13:05:49;99530.47;;;21.96;44.06
80137;BME280;69466;55.948;37.484;2023-09-30T13:08:18;99515.34;;;21.88;44.19
80137;BME280;69466;55.948;37.484;2023-09-30T13:10:45;99518.94;;;21.89;44.39
80137;BME280;69466;55.948;37.484;2023-09-30T13:13:11;99516.78;;;21.86;44.70
80137;BME280;69466;55.948;37.484;2023-09-30T13:15:37;99516.03;;;21.80;45.32
80137;BME280;69466;55.948;37.484;2023-09-30T13:18:04;99505.19;;;21.84;44.98